Terminal Aerodrome Forecast
Issued by NWS

Home | Current Version | Previous Version | Text Only | Print | Product List | Glossary On
Versions: 1 2 3 4 5 6 7 8 9 10 11 12 13 14 15 16 17 18 19 20 21 22 23 24 25 26
000
FTUS44 KLZK 180500 RRA
TAFHRO
TAF
KHRO 180540Z 1806/1906 00000KT 1/2SM FG VV002
     FM180800 00000KT 1/4SM FG VCTS BKN002 OVC008CB
     FM181200 VRB03KT 2SM BR VCSH OVC008
     FM181600 10005KT P6SM BKN025 OVC050
     FM182000 11006KT P6SM BKN050
     FM190000 12005KT P6SM BKN250=

USA.gov is the U.S. government's official web portal to all federal, state and local government web resources and services.